createdAt,value
2023-01-25T00:00:46.631Z,103317.94
2023-01-25T00:03:13.512Z,103305.56
2023-01-25T00:05:40.527Z,103306.44
2023-01-25T00:08:07.478Z,103299.38
2023-01-25T00:10:34.389Z,103295.81
2023-01-25T00:13:01.284Z,103307.31
2023-01-25T00:15:28.157Z,103293.19
2023-01-25T00:17:55.015Z,103297.59
2023-01-25T00:20:21.988Z,103285.22
2023-01-25T00:22:48.857Z,103278.16
2023-01-25T00:25:15.826Z,103277.28
2023-01-25T00:27:42.786Z,103279.03
2023-01-25T00:30:10.522Z,103281.69
2023-01-25T00:32:48.550Z,103264.84
2023-01-25T00:35:15.701Z,103261.34
2023-01-25T00:37:44.696Z,103268.41
2023-01-25T00:40:13.053Z,103263.97
2023-01-25T00:42:41.001Z,103265.78
2023-01-25T00:45:10.094Z,103258.72
2023-01-25T00:47:37.185Z,103256.97
2023-01-25T00:50:07.000Z,103256.97
2023-01-25T00:52:33.950Z,103256.09
2023-01-25T00:55:00.959Z,103257.88
2023-01-25T00:57:28.094Z,103258.78
2023-01-25T00:59:55.071Z,103272.00
2023-01-25T01:02:22.013Z,103249.03
2023-01-25T01:04:48.984Z,103259.66
2023-01-25T01:07:16.217Z,103251.72
2023-01-25T01:09:43.193Z,103246.41
2023-01-25T01:12:10.131Z,103245.53
2023-01-25T01:14:37.167Z,103247.28
2023-01-25T01:17:05.282Z,103252.59
2023-01-25T01:19:32.366Z,103246.38
2023-01-25T01:21:59.309Z,103250.81
2023-01-25T01:24:29.235Z,103248.16
2023-01-25T01:26:56.262Z,103242.88
2023-01-25T01:29:23.309Z,103249.06
2023-01-25T01:31:55.606Z,103248.16
2023-01-25T01:34:25.122Z,103255.25
2023-01-25T01:36:52.213Z,103248.16
2023-01-25T01:39:19.473Z,103245.53
2023-01-25T01:41:46.506Z,103243.69
2023-01-25T01:44:20.534Z,103249.00
2023-01-25T01:46:58.786Z,103241.94
2023-01-25T01:49:32.612Z,103241.94
2023-01-25T01:52:16.531Z,103241.03
2023-01-25T01:54:50.269Z,103246.34
2023-01-25T01:57:22.597Z,103246.31
2023-01-25T02:00:19.681Z,103238.38
2023-01-25T02:02:49.515Z,103248.09
2023-01-25T02:06:01.528Z,103240.16
2023-01-25T02:08:33.821Z,103234.81
2023-01-25T02:11:01.995Z,103231.31
2023-01-25T02:13:29.222Z,103238.38
2023-01-25T02:15:56.546Z,103235.72
2023-01-25T02:18:25.128Z,103235.69
2023-01-25T02:20:57.719Z,103233.06
2023-01-25T02:23:56.557Z,103220.72
2023-01-25T02:26:24.523Z,103224.22
2023-01-25T02:29:06.284Z,103220.72
2023-01-25T02:31:33.385Z,103206.56
2023-01-25T02:34:01.120Z,103203.91
2023-01-25T02:36:32.023Z,103202.16
2023-01-25T02:39:12.151Z,103196.84
2023-01-25T02:41:42.999Z,103190.66
2023-01-25T02:44:18.376Z,103184.47
2023-01-25T02:46:45.863Z,103186.25
2023-01-25T02:49:14.526Z,103182.72
2023-01-25T02:51:49.989Z,103189.81
2023-01-25T02:54:20.638Z,103189.81
2023-01-25T02:56:47.607Z,103187.16
2023-01-25T02:59:14.676Z,103186.25
2023-01-25T03:01:46.397Z,103182.69
2023-01-25T03:04:13.731Z,103187.09
2023-01-25T03:06:41.929Z,103179.16
2023-01-25T03:09:11.506Z,103179.13
2023-01-25T03:11:42.631Z,103175.59
2023-01-25T03:14:10.554Z,103172.97
2023-01-25T03:16:37.600Z,103172.03
2023-01-25T03:19:05.906Z,103156.16
2023-01-25T03:21:33.007Z,103161.47
2023-01-25T03:24:02.125Z,103141.13
2023-01-25T03:26:58.796Z,103151.75
2023-01-25T03:29:37.841Z,103145.56
2023-01-25T03:32:10.473Z,103134.97
2023-01-25T03:34:37.551Z,103145.56
2023-01-25T03:37:04.487Z,103136.75
2023-01-25T03:39:33.673Z,103132.31
2023-01-25T03:42:00.625Z,103128.81
2023-01-25T03:44:27.609Z,103129.69
2023-01-25T03:46:54.571Z,103127.94
2023-01-25T03:49:21.642Z,103132.34
2023-01-25T03:51:48.684Z,103125.28
2023-01-25T03:54:17.041Z,103121.72
2023-01-25T03:56:44.084Z,103120.84
2023-01-25T03:59:23.723Z,103120.84
2023-01-25T04:01:51.204Z,103111.13
2023-01-25T04:04:19.109Z,103107.59
2023-01-25T04:06:47.749Z,103109.38
2023-01-25T04:09:15.578Z,103101.38
2023-01-25T04:11:50.933Z,103117.28
2023-01-25T04:14:23.274Z,103113.75
2023-01-25T04:17:05.369Z,103096.13
2023-01-25T04:19:40.717Z,103100.53
2023-01-25T04:22:12.818Z,103110.28
2023-01-25T04:24:39.931Z,103099.66
2023-01-25T04:27:08.835Z,103100.53
2023-01-25T04:29:42.915Z,103092.59
2023-01-25T04:32:16.098Z,103098.75
2023-01-25T04:34:43.244Z,103107.59
2023-01-25T04:37:14.725Z,103103.19
2023-01-25T04:39:54.589Z,103099.63
2023-01-25T04:42:21.670Z,103112.00
2023-01-25T04:44:53.484Z,103108.47
2023-01-25T04:47:20.616Z,103103.16
2023-01-25T04:49:47.553Z,103097.88
2023-01-25T04:52:17.754Z,103110.22
2023-01-25T04:54:44.990Z,103093.44
2023-01-25T04:57:13.312Z,103101.41
2023-01-25T04:59:43.383Z,103101.41
2023-01-25T05:02:10.355Z,103085.50
2023-01-25T05:04:37.482Z,103082.88
2023-01-25T05:07:04.396Z,103089.06
2023-01-25T05:09:31.553Z,103093.47
2023-01-25T05:11:58.811Z,103082.88
2023-01-25T05:14:38.856Z,103066.94
2023-01-25T05:17:07.951Z,103081.09
2023-01-25T05:19:36.240Z,103077.56
2023-01-25T05:22:07.736Z,103078.47
2023-01-25T05:24:43.309Z,103072.28
2023-01-25T05:27:15.483Z,103070.53
2023-01-25T05:30:06.022Z,103072.28
2023-01-25T05:32:41.059Z,103071.44
2023-01-25T05:35:08.923Z,103069.63
2023-01-25T05:37:36.210Z,103067.88
2023-01-25T05:40:08.432Z,103065.19
2023-01-25T05:42:38.111Z,103059.91
2023-01-25T05:45:10.002Z,103065.22
2023-01-25T05:47:39.478Z,103062.56
2023-01-25T05:50:08.788Z,103060.81
2023-01-25T05:52:52.541Z,103071.41
2023-01-25T05:55:19.475Z,103061.69
2023-01-25T05:57:47.107Z,103071.41
2023-01-25T06:00:14.861Z,103051.94
2023-01-25T06:02:42.225Z,103066.09
2023-01-25T06:05:14.234Z,103061.69
2023-01-25T06:07:41.372Z,103063.47
2023-01-25T06:10:09.327Z,103062.56
2023-01-25T06:12:36.928Z,103067.84
2023-01-25T06:15:04.209Z,103055.50
2023-01-25T06:17:31.158Z,103063.47
2023-01-25T06:20:07.666Z,103062.56
2023-01-25T06:22:36.519Z,103050.25
2023-01-25T06:25:03.735Z,103059.94
2023-01-25T06:27:30.887Z,103049.34
2023-01-25T06:29:57.778Z,103056.44
2023-01-25T06:32:25.901Z,103068.75
2023-01-25T06:34:53.178Z,103062.59
2023-01-25T06:37:22.929Z,103044.03
2023-01-25T06:39:50.101Z,103060.84
2023-01-25T06:42:17.041Z,103049.34
2023-01-25T06:44:43.951Z,103048.47
2023-01-25T06:47:12.469Z,103045.81
2023-01-25T06:49:39.340Z,103044.03
2023-01-25T06:52:06.243Z,103046.69
2023-01-25T06:54:33.824Z,103052.88
2023-01-25T06:57:00.727Z,103051.13
2023-01-25T06:59:27.623Z,103054.69
2023-01-25T07:01:54.597Z,103056.41
2023-01-25T07:04:21.535Z,103038.75
2023-01-25T07:06:48.497Z,103038.75
2023-01-25T07:09:15.788Z,103040.53
2023-01-25T07:11:42.704Z,103037.00
2023-01-25T07:14:09.603Z,103033.44
2023-01-25T07:16:37.228Z,103032.59
2023-01-25T07:19:09.460Z,103040.53
2023-01-25T07:21:37.218Z,103035.22
2023-01-25T07:24:05.411Z,103037.88
2023-01-25T07:26:32.931Z,103038.75
2023-01-25T07:29:00.402Z,103036.13
2023-01-25T07:31:28.339Z,103035.22
2023-01-25T07:33:57.831Z,103029.94
2023-01-25T07:36:26.009Z,103029.94
2023-01-25T07:38:55.530Z,103024.66
2023-01-25T07:41:24.656Z,103014.06
2023-01-25T07:43:52.640Z,103022.88
2023-01-25T07:46:34.152Z,103026.41
2023-01-25T07:49:01.037Z,103014.94
2023-01-25T07:51:30.765Z,103018.44
2023-01-25T07:54:01.336Z,103012.25
2023-01-25T07:56:31.738Z,103016.69
2023-01-25T07:59:02.685Z,102998.16
2023-01-25T08:01:34.973Z,103010.53
2023-01-25T08:04:03.526Z,103003.47
2023-01-25T08:06:38.886Z,103014.91
2023-01-25T08:09:19.753Z,103014.91
2023-01-25T08:11:49.232Z,103019.34
2023-01-25T08:14:16.284Z,103013.16
2023-01-25T08:16:43.258Z,103007.84
2023-01-25T08:19:10.996Z,102999.00
2023-01-25T08:21:38.002Z,102995.47
2023-01-25T08:24:07.210Z,102997.25
2023-01-25T08:26:36.196Z,103006.06
2023-01-25T08:29:04.176Z,103004.31
2023-01-25T08:31:34.479Z,102999.88
2023-01-25T08:34:02.247Z,103006.09
2023-01-25T08:36:29.911Z,103000.78
2023-01-25T08:39:05.545Z,102999.00
2023-01-25T08:41:35.248Z,102991.97
2023-01-25T08:44:02.301Z,102989.31
2023-01-25T08:46:33.234Z,102990.19
2023-01-25T08:49:02.164Z,102998.13
2023-01-25T08:51:31.515Z,102995.47
2023-01-25T08:54:03.804Z,102984.00
2023-01-25T08:56:30.777Z,102981.34
2023-01-25T08:58:57.705Z,102974.28
2023-01-25T09:01:24.584Z,102982.25
2023-01-25T09:03:51.790Z,102972.53
2023-01-25T09:06:20.213Z,102959.28
2023-01-25T09:08:47.725Z,102953.13
2023-01-25T09:11:21.195Z,102964.56
2023-01-25T09:13:49.040Z,102966.34
2023-01-25T09:16:27.970Z,102948.72
2023-01-25T09:19:01.638Z,102960.19
2023-01-25T09:21:29.495Z,102948.69
2023-01-25T09:24:05.988Z,102953.13
2023-01-25T09:26:45.950Z,102942.53
2023-01-25T09:29:16.947Z,102938.09
2023-01-25T09:31:44.310Z,102932.81
2023-01-25T09:34:22.558Z,102939.88
2023-01-25T09:36:49.759Z,102936.34
2023-01-25T09:39:16.692Z,102941.66
2023-01-25T09:42:22.380Z,102947.84
2023-01-25T09:45:17.788Z,102927.50
2023-01-25T09:48:09.727Z,102933.72
2023-01-25T09:51:03.691Z,102939.00
2023-01-25T09:53:35.804Z,102933.72
2023-01-25T09:56:27.752Z,102927.50
2023-01-25T09:59:00.383Z,102931.91
2023-01-25T10:01:38.914Z,102933.69
2023-01-25T10:04:22.768Z,102913.38
2023-01-25T10:07:00.528Z,102918.72
2023-01-25T10:09:37.626Z,102906.34
2023-01-25T10:12:23.928Z,102909.00
2023-01-25T10:14:52.315Z,102915.16
2023-01-25T10:17:39.783Z,102910.75
2023-01-25T10:20:44.525Z,102911.66
2023-01-25T10:23:50.601Z,102903.72
2023-01-25T10:26:29.881Z,102913.41
2023-01-25T10:29:12.942Z,102904.59
2023-01-25T10:32:17.349Z,102893.13
2023-01-25T10:34:56.747Z,102887.81
2023-01-25T10:37:31.310Z,102886.06
2023-01-25T10:40:12.002Z,102881.66
2023-01-25T10:42:49.135Z,102871.91
2023-01-25T10:45:17.604Z,102876.34
2023-01-25T10:47:54.361Z,102856.03
2023-01-25T10:50:42.236Z,102857.81
2023-01-25T10:53:35.760Z,102859.56
2023-01-25T10:56:11.843Z,102856.91
2023-01-25T10:58:42.693Z,102863.06
2023-01-25T11:01:25.060Z,102846.31
2023-01-25T11:03:52.167Z,102839.25
2023-01-25T11:06:34.849Z,102841.03
2023-01-25T11:09:31.258Z,102837.47
2023-01-25T11:12:11.754Z,102831.31
2023-01-25T11:14:38.685Z,102824.25
2023-01-25T11:17:07.196Z,102819.88
2023-01-25T11:19:40.341Z,102804.84
2023-01-25T11:22:24.363Z,102809.28
2023-01-25T11:24:51.248Z,102795.16
2023-01-25T11:27:19.992Z,102802.19
2023-01-25T11:30:12.799Z,102777.50
2023-01-25T11:32:41.245Z,102781.94
2023-01-25T11:35:22.888Z,102776.63
2023-01-25T11:38:14.657Z,102773.09
2023-01-25T11:40:55.085Z,102763.41
2023-01-25T11:43:45.206Z,102766.00
2023-01-25T11:46:43.200Z,102761.59
2023-01-25T11:49:42.127Z,102752.78
2023-01-25T11:52:53.389Z,102742.19
2023-01-25T11:55:35.579Z,102733.38
2023-01-25T11:58:32.623Z,102743.06
2023-01-25T12:01:27.792Z,102731.59
2023-01-25T12:04:28.303Z,102721.03
2023-01-25T12:07:03.832Z,102712.16
2023-01-25T12:09:54.797Z,102709.53
2023-01-25T12:12:46.926Z,102700.75
2023-01-25T12:15:36.082Z,102693.69
2023-01-25T12:18:33.693Z,102686.59
2023-01-25T12:21:22.973Z,102677.78
2023-01-25T12:24:58.551Z,102670.72
2023-01-25T12:27:54.103Z,102669.84
2023-01-25T12:30:38.937Z,102662.78
2023-01-25T12:33:46.450Z,102651.34
2023-01-25T12:36:31.342Z,102645.19
2023-01-25T12:39:18.214Z,102642.56
2023-01-25T12:41:55.074Z,102624.03
2023-01-25T12:44:39.049Z,102617.88
2023-01-25T12:47:20.716Z,102614.31
2023-01-25T12:49:55.298Z,102616.13
2023-01-25T12:52:48.755Z,102604.66
2023-01-25T12:55:18.632Z,102599.34
2023-01-25T12:58:19.771Z,102579.97
2023-01-25T13:01:23.613Z,102584.34
2023-01-25T13:04:39.872Z,102581.69
2023-01-25T13:07:31.526Z,102569.34
2023-01-25T13:10:31.453Z,102568.41
2023-01-25T13:13:04.128Z,102557.81
2023-01-25T13:15:42.408Z,102548.97
2023-01-25T13:18:24.615Z,102554.25
2023-01-25T13:20:54.050Z,102543.72
2023-01-25T13:23:35.016Z,102552.53
2023-01-25T13:26:20.852Z,102551.66
2023-01-25T13:28:55.800Z,102541.94
2023-01-25T13:31:59.078Z,102555.16
2023-01-25T13:34:39.074Z,102554.28
2023-01-25T13:37:32.994Z,102534.03
2023-01-25T13:40:19.700Z,102536.69
2023-01-25T13:43:00.897Z,102532.28
2023-01-25T13:45:29.220Z,102527.88
2023-01-25T13:48:11.505Z,102526.09
2023-01-25T13:50:46.123Z,102540.22
2023-01-25T13:53:15.928Z,102533.19
2023-01-25T13:55:46.765Z,102519.97
2023-01-25T13:58:19.611Z,102520.88
2023-01-25T14:00:57.808Z,102531.47
2023-01-25T14:03:50.623Z,102524.44
2023-01-25T14:06:25.196Z,102535.91
2023-01-25T14:08:55.469Z,102527.97
2023-01-25T14:11:26.051Z,102533.22
2023-01-25T14:14:29.142Z,102527.06
2023-01-25T14:17:18.186Z,102513.84
2023-01-25T14:19:53.467Z,102520.03
2023-01-25T14:22:29.814Z,102523.59
2023-01-25T14:25:15.425Z,102528.91
2023-01-25T14:27:52.604Z,102527.16
2023-01-25T14:30:27.904Z,102531.56
2023-01-25T14:32:58.434Z,102520.13
2023-01-25T14:35:54.175Z,102510.41
2023-01-25T14:38:26.730Z,102507.78
2023-01-25T14:41:03.926Z,102501.59
2023-01-25T14:43:31.377Z,102499.84
2023-01-25T14:45:58.379Z,102490.13
2023-01-25T14:48:41.678Z,102499.84
2023-01-25T14:51:30.480Z,102496.34
2023-01-25T14:54:06.143Z,102475.16
2023-01-25T14:56:45.774Z,102464.59
2023-01-25T14:59:31.656Z,102473.38
2023-01-25T15:02:18.307Z,102476.03
2023-01-25T15:05:02.813Z,102473.41
2023-01-25T15:07:50.009Z,102466.41
2023-01-25T15:10:36.747Z,102466.44
2023-01-25T15:13:14.437Z,102483.16
2023-01-25T15:15:58.567Z,102476.13
2023-01-25T15:18:43.810Z,102471.75
2023-01-25T15:21:31.953Z,102472.63
2023-01-25T15:24:06.308Z,102464.69
2023-01-25T15:26:35.561Z,102475.28
2023-01-25T15:29:12.071Z,102475.25
2023-01-25T15:31:39.459Z,102466.50
2023-01-25T15:34:09.800Z,102477.06
2023-01-25T15:36:36.699Z,102474.41
2023-01-25T15:39:04.072Z,102478.81
2023-01-25T15:41:30.958Z,102477.06
2023-01-25T15:43:57.942Z,102478.81
2023-01-25T15:46:30.457Z,102460.34
2023-01-25T15:48:57.403Z,102476.19
2023-01-25T15:51:24.406Z,102468.25
2023-01-25T15:53:51.488Z,102471.78
2023-01-25T15:56:24.666Z,102460.34
2023-01-25T15:58:55.068Z,102460.31
2023-01-25T16:01:27.745Z,102452.41
2023-01-25T16:03:59.599Z,102450.66
2023-01-25T16:06:48.418Z,102443.59
2023-01-25T16:09:29.466Z,102440.97
2023-01-25T16:12:00.051Z,102436.56
2023-01-25T16:14:30.139Z,102443.63
2023-01-25T16:17:04.077Z,102435.72
2023-01-25T16:19:32.156Z,102438.31
2023-01-25T16:21:59.538Z,102438.31
2023-01-25T16:24:26.679Z,102428.59
2023-01-25T16:26:58.966Z,102435.66
2023-01-25T16:29:26.638Z,102423.28
2023-01-25T16:31:54.811Z,102421.50
2023-01-25T16:34:22.136Z,102420.66
2023-01-25T16:36:53.076Z,102423.28
2023-01-25T16:39:25.340Z,102429.47
2023-01-25T16:41:52.564Z,102420.63
2023-01-25T16:44:19.676Z,102417.13
2023-01-25T16:46:48.963Z,102401.28
2023-01-25T16:49:19.969Z,102403.06
2023-01-25T16:51:48.914Z,102398.63
2023-01-25T16:54:16.097Z,102405.69
2023-01-25T16:56:42.990Z,102402.22
2023-01-25T16:59:11.359Z,102401.34
2023-01-25T17:01:41.312Z,102414.53
2023-01-25T17:04:09.527Z,102390.75
2023-01-25T17:06:43.124Z,102384.56
2023-01-25T17:09:23.013Z,102364.31
2023-01-25T17:11:50.856Z,102366.97
2023-01-25T17:14:19.256Z,102366.06
2023-01-25T17:16:48.357Z,102383.69
2023-01-25T17:19:17.281Z,102383.69
2023-01-25T17:21:45.550Z,102366.09
2023-01-25T17:24:21.462Z,102386.31
2023-01-25T17:26:49.022Z,102390.75
2023-01-25T17:29:15.993Z,102401.28
2023-01-25T17:31:44.355Z,102389.84
2023-01-25T17:34:16.010Z,102403.94
2023-01-25T17:36:44.034Z,102399.53
2023-01-25T17:39:15.286Z,102388.94
2023-01-25T17:41:47.078Z,102391.59
2023-01-25T17:44:20.051Z,102393.34
2023-01-25T17:46:47.482Z,102396.00
2023-01-25T17:49:16.833Z,102386.31
2023-01-25T17:51:45.128Z,102376.66
2023-01-25T17:54:12.995Z,102374.03
2023-01-25T17:56:40.313Z,102368.75
2023-01-25T17:59:08.989Z,102358.19
2023-01-25T18:01:36.461Z,102368.72
2023-01-25T18:04:07.491Z,102368.72
2023-01-25T18:06:35.026Z,102356.38
2023-01-25T18:09:03.864Z,102355.50
2023-01-25T18:11:34.315Z,102347.56
2023-01-25T18:14:10.580Z,102344.94
2023-01-25T18:16:40.423Z,102347.59
2023-01-25T18:19:08.514Z,102344.09
2023-01-25T18:21:36.210Z,102354.66
2023-01-25T18:24:34.799Z,102355.53
2023-01-25T18:27:23.997Z,102347.63
2023-01-25T18:30:37.288Z,102335.34
2023-01-25T18:33:05.574Z,102342.41
2023-01-25T18:35:32.730Z,102345.06
2023-01-25T18:37:59.831Z,102342.41
2023-01-25T18:40:26.772Z,102332.72
2023-01-25T18:42:53.679Z,102328.31
2023-01-25T18:45:21.430Z,102313.31
2023-01-25T18:47:49.176Z,102311.59
2023-01-25T18:50:16.338Z,102305.47
2023-01-25T18:52:44.267Z,102305.47
2023-01-25T18:55:12.474Z,102287.00
2023-01-25T18:57:39.652Z,102286.09
2023-01-25T19:00:10.946Z,102280.00
2023-01-25T19:02:37.957Z,102287.03
2023-01-25T19:05:05.222Z,102285.25
2023-01-25T19:07:33.223Z,102294.09
2023-01-25T19:10:00.176Z,102279.16
2023-01-25T19:12:27.429Z,102284.41
2023-01-25T19:14:54.537Z,102276.50
2023-01-25T19:17:21.441Z,102271.22
2023-01-25T19:19:48.398Z,102268.56
2023-01-25T19:22:15.332Z,102264.16
2023-01-25T19:24:43.214Z,102287.91
2023-01-25T19:27:10.149Z,102277.34
2023-01-25T19:29:37.123Z,102271.19
2023-01-25T19:32:04.136Z,102255.34
2023-01-25T19:34:31.067Z,102248.28
2023-01-25T19:36:58.231Z,102250.94
2023-01-25T19:39:26.136Z,102249.16
2023-01-25T19:41:53.456Z,102254.44
2023-01-25T19:44:21.317Z,102254.41
2023-01-25T19:46:48.790Z,102242.09
2023-01-25T19:49:15.758Z,102235.94
2023-01-25T19:51:46.260Z,102226.25
2023-01-25T19:54:17.094Z,102227.16
2023-01-25T19:56:47.957Z,102231.50
2023-01-25T19:59:18.850Z,102228.88
2023-01-25T20:01:46.378Z,102228.88
2023-01-25T20:04:16.865Z,102228.91
2023-01-25T20:06:44.118Z,102228.03
2023-01-25T20:09:17.385Z,102217.47
2023-01-25T20:11:45.948Z,102220.09
2023-01-25T20:14:14.196Z,102228.94
2023-01-25T20:16:41.506Z,102229.81
2023-01-25T20:19:11.903Z,102238.63
2023-01-25T20:21:39.667Z,102230.72
2023-01-25T20:24:09.711Z,102234.25
2023-01-25T20:26:39.246Z,102221.94
2023-01-25T20:29:07.547Z,102216.66
2023-01-25T20:31:41.149Z,102209.63
2023-01-25T20:34:21.659Z,102207.03
2023-01-25T20:36:51.457Z,102207.88
2023-01-25T20:39:21.340Z,102213.16
2023-01-25T20:41:49.921Z,102221.97
2023-01-25T20:44:18.000Z,102216.69
2023-01-25T20:46:45.669Z,102222.88
2023-01-25T20:49:18.418Z,102211.41
2023-01-25T20:51:46.274Z,102199.09
2023-01-25T20:54:13.673Z,102193.81
2023-01-25T20:56:40.832Z,102213.19
2023-01-25T20:59:07.780Z,102201.78
2023-01-25T21:01:37.054Z,102205.31
2023-01-25T21:04:07.036Z,102214.09
2023-01-25T21:06:35.203Z,102200.91
2023-01-25T21:09:03.171Z,102202.63
2023-01-25T21:11:30.226Z,102192.09
2023-01-25T21:13:58.225Z,102192.09
2023-01-25T21:16:26.325Z,102197.38
2023-01-25T21:18:56.387Z,102192.94
2023-01-25T21:21:28.448Z,102180.66
2023-01-25T21:23:59.665Z,102197.34
2023-01-25T21:26:30.778Z,102197.31
2023-01-25T21:29:00.594Z,102190.31
2023-01-25T21:31:32.808Z,102201.72
2023-01-25T21:34:00.776Z,102196.44
2023-01-25T21:36:28.201Z,102194.69
2023-01-25T21:38:55.829Z,102185.88
2023-01-25T21:41:26.158Z,102169.19
2023-01-25T21:44:14.081Z,102171.84
2023-01-25T21:46:41.708Z,102173.59
2023-01-25T21:49:30.540Z,102170.97
2023-01-25T21:52:01.934Z,102171.00
2023-01-25T21:54:30.925Z,102165.72
2023-01-25T21:56:59.727Z,102161.31
2023-01-25T21:59:26.934Z,102154.28
2023-01-25T22:01:55.393Z,102149.88
2023-01-25T22:04:24.363Z,102162.16
2023-01-25T22:06:54.760Z,102156.84
2023-01-25T22:09:24.709Z,102142.78
2023-01-25T22:11:53.441Z,102136.63
2023-01-25T22:14:23.015Z,102146.25
2023-01-25T22:16:54.196Z,102146.28
2023-01-25T22:19:21.236Z,102149.75
2023-01-25T22:21:48.444Z,102148.88
2023-01-25T22:24:15.364Z,102137.47
2023-01-25T22:27:06.381Z,102121.59
2023-01-25T22:29:34.103Z,102115.50
2023-01-25T22:32:02.140Z,102117.25
2023-01-25T22:34:29.142Z,102113.72
2023-01-25T22:36:56.130Z,102105.81
2023-01-25T22:39:22.999Z,102113.69
2023-01-25T22:41:49.924Z,102104.03
2023-01-25T22:44:16.842Z,102096.16
2023-01-25T22:46:43.830Z,102086.47
2023-01-25T22:49:10.909Z,102087.34
2023-01-25T22:51:37.819Z,102092.63
2023-01-25T22:54:05.229Z,102097.88
2023-01-25T22:56:33.773Z,102104.03
2023-01-25T22:59:01.944Z,102089.97
2023-01-25T23:01:34.296Z,102082.06
2023-01-25T23:04:02.330Z,102075.03
2023-01-25T23:06:34.044Z,102074.19
2023-01-25T23:09:04.552Z,102078.53
2023-01-25T23:11:37.765Z,102083.81
2023-01-25T23:14:27.319Z,102074.16
2023-01-25T23:17:14.424Z,102068.00
2023-01-25T23:19:41.441Z,102055.69
2023-01-25T23:22:08.351Z,102045.13
2023-01-25T23:24:35.284Z,102043.38
2023-01-25T23:27:02.203Z,102046.00
2023-01-25T23:29:29.093Z,102042.50
2023-01-25T23:31:56.024Z,102044.22
2023-01-25T23:34:22.953Z,102032.78
2023-01-25T23:36:49.841Z,102022.19
2023-01-25T23:39:16.735Z,102029.19
2023-01-25T23:41:43.650Z,102021.31
2023-01-25T23:44:10.526Z,102023.03
2023-01-25T23:46:37.541Z,102030.00
2023-01-25T23:49:04.617Z,102021.19
2023-01-25T23:51:31.501Z,102003.63
2023-01-25T23:53:58.425Z,102005.41
2023-01-25T23:56:25.422Z,102012.44
2023-01-25T23:58:52.398Z,102022.09
